sensor_id;sensor_type;location;lat;lon;timestamp;P1;durP1;ratioP1;P2;durP2;ratioP2
20069;SDS011;10195;50.868;4.382;2023-10-08T00:01:28;8.90;;;3.58;;
20069;SDS011;10195;50.868;4.382;2023-10-08T00:03:54;8.70;;;3.50;;
20069;SDS011;10195;50.868;4.382;2023-10-08T00:06:23;7.38;;;3.13;;
20069;SDS011;10195;50.868;4.382;2023-10-08T00:08:49;9.13;;;3.83;;
20069;SDS011;10195;50.868;4.382;2023-10-08T00:11:15;8.23;;;3.88;;
20069;SDS011;10195;50.868;4.382;2023-10-08T00:13:42;8.40;;;3.53;;
20069;SDS011;10195;50.868;4.382;2023-10-08T00:16:09;8.40;;;3.60;;
20069;SDS011;10195;50.868;4.382;2023-10-08T00:18:37;6.53;;;3.33;;
20069;SDS011;10195;50.868;4.382;2023-10-08T00:21:06;5.65;;;3.05;;
20069;SDS011;10195;50.868;4.382;2023-10-08T00:23:34;8.95;;;3.42;;
20069;SDS011;10195;50.868;4.382;2023-10-08T00:26:01;9.68;;;3.67;;
20069;SDS011;10195;50.868;4.382;2023-10-08T00:28:30;8.75;;;3.20;;
20069;SDS011;10195;50.868;4.382;2023-10-08T00:30:57;6.30;;;3.55;;
20069;SDS011;10195;50.868;4.382;2023-10-08T00:33:36;8.70;;;3.95;;
20069;SDS011;10195;50.868;4.382;2023-10-08T00:36:02;7.50;;;3.42;;
20069;SDS011;10195;50.868;4.382;2023-10-08T00:38:42;9.15;;;3.08;;
20069;SDS011;10195;50.868;4.382;2023-10-08T00:41:12;8.05;;;3.70;;
20069;SDS011;10195;50.868;4.382;2023-10-08T00:43:41;5.80;;;3.13;;
20069;SDS011;10195;50.868;4.382;2023-10-08T00:46:10;6.30;;;3.75;;
20069;SDS011;10195;50.868;4.382;2023-10-08T00:48:56;9.18;;;3.95;;
20069;SDS011;10195;50.868;4.382;2023-10-08T00:51:24;8.70;;;3.20;;
20069;SDS011;10195;50.868;4.382;2023-10-08T00:53:52;8.63;;;3.95;;
20069;SDS011;10195;50.868;4.382;2023-10-08T00:56:30;11.20;;;3.50;;
20069;SDS011;10195;50.868;4.382;2023-10-08T00:59:12;11.38;;;3.72;;
20069;SDS011;10195;50.868;4.382;2023-10-08T01:01:39;7.63;;;3.55;;
20069;SDS011;10195;50.868;4.382;2023-10-08T01:04:05;10.88;;;3.60;;
20069;SDS011;10195;50.868;4.382;2023-10-08T01:06:37;10.00;;;3.78;;
20069;SDS011;10195;50.868;4.382;2023-10-08T01:09:05;8.48;;;3.38;;
20069;SDS011;10195;50.868;4.382;2023-10-08T01:11:43;6.20;;;3.42;;
20069;SDS011;10195;50.868;4.382;2023-10-08T01:14:18;7.35;;;3.30;;
20069;SDS011;10195;50.868;4.382;2023-10-08T01:16:46;7.85;;;3.60;;
20069;SDS011;10195;50.868;4.382;2023-10-08T01:19:17;9.43;;;3.97;;
20069;SDS011;10195;50.868;4.382;2023-10-08T01:21:45;7.93;;;3.40;;
20069;SDS011;10195;50.868;4.382;2023-10-08T01:24:10;6.33;;;3.23;;
20069;SDS011;10195;50.868;4.382;2023-10-08T01:26:41;8.07;;;3.72;;
20069;SDS011;10195;50.868;4.382;2023-10-08T01:29:10;8.00;;;3.80;;
20069;SDS011;10195;50.868;4.382;2023-10-08T01:31:44;7.97;;;3.75;;
20069;SDS011;10195;50.868;4.382;2023-10-08T01:34:11;7.65;;;3.75;;
20069;SDS011;10195;50.868;4.382;2023-10-08T01:36:41;8.00;;;3.97;;
20069;SDS011;10195;50.868;4.382;2023-10-08T01:39:09;8.82;;;3.78;;
20069;SDS011;10195;50.868;4.382;2023-10-08T01:41:42;10.55;;;3.72;;
20069;SDS011;10195;50.868;4.382;2023-10-08T01:44:16;11.40;;;3.47;;
20069;SDS011;10195;50.868;4.382;2023-10-08T01:46:42;7.97;;;3.72;;
20069;SDS011;10195;50.868;4.382;2023-10-08T01:49:08;8.90;;;4.00;;
20069;SDS011;10195;50.868;4.382;2023-10-08T01:51:39;9.48;;;3.70;;
20069;SDS011;10195;50.868;4.382;2023-10-08T01:54:12;8.05;;;3.85;;
20069;SDS011;10195;50.868;4.382;2023-10-08T01:56:40;7.82;;;4.20;;
20069;SDS011;10195;50.868;4.382;2023-10-08T01:59:13;10.10;;;4.37;;
20069;SDS011;10195;50.868;4.382;2023-10-08T02:01:41;6.70;;;3.80;;
20069;SDS011;10195;50.868;4.382;2023-10-08T02:04:08;6.23;;;3.47;;
20069;SDS011;10195;50.868;4.382;2023-10-08T02:06:38;7.90;;;3.63;;
20069;SDS011;10195;50.868;4.382;2023-10-08T02:09:07;9.80;;;3.90;;
20069;SDS011;10195;50.868;4.382;2023-10-08T02:11:45;7.87;;;3.63;;
20069;SDS011;10195;50.868;4.382;2023-10-08T02:14:16;8.77;;;3.50;;
20069;SDS011;10195;50.868;4.382;2023-10-08T02:16:43;10.87;;;3.73;;
20069;SDS011;10195;50.868;4.382;2023-10-08T02:19:09;10.00;;;3.88;;
20069;SDS011;10195;50.868;4.382;2023-10-08T02:21:38;6.57;;;3.42;;
20069;SDS011;10195;50.868;4.382;2023-10-08T02:24:05;6.78;;;4.00;;
20069;SDS011;10195;50.868;4.382;2023-10-08T02:26:36;9.00;;;3.70;;
20069;SDS011;10195;50.868;4.382;2023-10-08T02:29:02;8.95;;;4.30;;
20069;SDS011;10195;50.868;4.382;2023-10-08T02:31:35;8.20;;;3.67;;
20069;SDS011;10195;50.868;4.382;2023-10-08T02:34:03;9.43;;;3.57;;
20069;SDS011;10195;50.868;4.382;2023-10-08T02:36:29;9.67;;;4.03;;
20069;SDS011;10195;50.868;4.382;2023-10-08T02:38:55;11.93;;;3.93;;
20069;SDS011;10195;50.868;4.382;2023-10-08T02:41:21;8.52;;;3.70;;
20069;SDS011;10195;50.868;4.382;2023-10-08T02:43:49;9.88;;;3.38;;
20069;SDS011;10195;50.868;4.382;2023-10-08T02:46:15;9.57;;;4.00;;
20069;SDS011;10195;50.868;4.382;2023-10-08T02:48:44;13.90;;;3.73;;
20069;SDS011;10195;50.868;4.382;2023-10-08T02:51:09;12.03;;;3.90;;
20069;SDS011;10195;50.868;4.382;2023-10-08T02:53:41;9.57;;;3.63;;
20069;SDS011;10195;50.868;4.382;2023-10-08T02:56:08;7.93;;;4.07;;
20069;SDS011;10195;50.868;4.382;2023-10-08T02:58:41;9.30;;;3.67;;
20069;SDS011;10195;50.868;4.382;2023-10-08T03:01:11;11.93;;;4.13;;
20069;SDS011;10195;50.868;4.382;2023-10-08T03:03:39;12.15;;;3.85;;
20069;SDS011;10195;50.868;4.382;2023-10-08T03:06:06;9.10;;;4.40;;
20069;SDS011;10195;50.868;4.382;2023-10-08T03:08:36;10.20;;;4.22;;
20069;SDS011;10195;50.868;4.382;2023-10-08T03:11:07;13.70;;;4.20;;
20069;SDS011;10195;50.868;4.382;2023-10-08T03:13:41;8.80;;;3.63;;
20069;SDS011;10195;50.868;4.382;2023-10-08T03:16:21;10.88;;;3.97;;
20069;SDS011;10195;50.868;4.382;2023-10-08T03:18:53;8.23;;;3.92;;
20069;SDS011;10195;50.868;4.382;2023-10-08T03:21:19;8.27;;;4.03;;
20069;SDS011;10195;50.868;4.382;2023-10-08T03:23:48;7.07;;;3.63;;
20069;SDS011;10195;50.868;4.382;2023-10-08T03:26:15;9.73;;;4.10;;
20069;SDS011;10195;50.868;4.382;2023-10-08T03:29:14;8.43;;;4.00;;
20069;SDS011;10195;50.868;4.382;2023-10-08T03:31:43;5.97;;;3.28;;
20069;SDS011;10195;50.868;4.382;2023-10-08T03:34:20;11.07;;;3.72;;
20069;SDS011;10195;50.868;4.382;2023-10-08T03:36:46;7.50;;;3.67;;
20069;SDS011;10195;50.868;4.382;2023-10-08T03:39:14;7.35;;;3.53;;
20069;SDS011;10195;50.868;4.382;2023-10-08T03:41:41;9.43;;;3.90;;
20069;SDS011;10195;50.868;4.382;2023-10-08T03:44:08;8.00;;;4.07;;
20069;SDS011;10195;50.868;4.382;2023-10-08T03:46:41;10.13;;;4.15;;
20069;SDS011;10195;50.868;4.382;2023-10-08T03:49:11;8.63;;;4.20;;
20069;SDS011;10195;50.868;4.382;2023-10-08T03:51:57;9.83;;;3.60;;
20069;SDS011;10195;50.868;4.382;2023-10-08T03:54:23;10.30;;;3.93;;
20069;SDS011;10195;50.868;4.382;2023-10-08T03:57:01;5.60;;;3.57;;
20069;SDS011;10195;50.868;4.382;2023-10-08T03:59:29;10.20;;;4.10;;
20069;SDS011;10195;50.868;4.382;2023-10-08T04:01:54;6.83;;;3.80;;
20069;SDS011;10195;50.868;4.382;2023-10-08T04:04:24;7.17;;;3.97;;
20069;SDS011;10195;50.868;4.382;2023-10-08T04:07:14;10.30;;;4.32;;
20069;SDS011;10195;50.868;4.382;2023-10-08T04:09:58;8.75;;;4.03;;
20069;SDS011;10195;50.868;4.382;2023-10-08T04:12:50;10.60;;;4.07;;
20069;SDS011;10195;50.868;4.382;2023-10-08T04:15:18;10.70;;;4.32;;
20069;SDS011;10195;50.868;4.382;2023-10-08T04:17:44;7.77;;;4.60;;
20069;SDS011;10195;50.868;4.382;2023-10-08T04:20:16;8.32;;;4.35;;
20069;SDS011;10195;50.868;4.382;2023-10-08T04:23:00;10.33;;;4.07;;
20069;SDS011;10195;50.868;4.382;2023-10-08T04:25:29;9.90;;;4.35;;
20069;SDS011;10195;50.868;4.382;2023-10-08T04:27:59;8.25;;;4.13;;
20069;SDS011;10195;50.868;4.382;2023-10-08T04:30:26;10.85;;;4.75;;
20069;SDS011;10195;50.868;4.382;2023-10-08T04:33:00;13.65;;;4.57;;
20069;SDS011;10195;50.868;4.382;2023-10-08T04:35:36;8.77;;;4.32;;
20069;SDS011;10195;50.868;4.382;2023-10-08T04:38:22;9.55;;;4.20;;
20069;SDS011;10195;50.868;4.382;2023-10-08T04:40:50;12.97;;;4.70;;
20069;SDS011;10195;50.868;4.382;2023-10-08T04:43:23;11.87;;;4.57;;
20069;SDS011;10195;50.868;4.382;2023-10-08T04:45:58;8.47;;;3.97;;
20069;SDS011;10195;50.868;4.382;2023-10-08T04:48:43;7.00;;;4.17;;
20069;SDS011;10195;50.868;4.382;2023-10-08T04:51:10;8.02;;;4.30;;
20069;SDS011;10195;50.868;4.382;2023-10-08T04:53:38;10.80;;;4.47;;
20069;SDS011;10195;50.868;4.382;2023-10-08T04:56:09;9.43;;;4.30;;
20069;SDS011;10195;50.868;4.382;2023-10-08T04:58:39;10.70;;;4.18;;
20069;SDS011;10195;50.868;4.382;2023-10-08T05:01:06;8.00;;;4.77;;
20069;SDS011;10195;50.868;4.382;2023-10-08T05:03:45;7.87;;;4.70;;
20069;SDS011;10195;50.868;4.382;2023-10-08T05:06:28;11.15;;;4.68;;
20069;SDS011;10195;50.868;4.382;2023-10-08T05:09:03;10.50;;;4.43;;
20069;SDS011;10195;50.868;4.382;2023-10-08T05:11:50;10.23;;;4.47;;
20069;SDS011;10195;50.868;4.382;2023-10-08T05:14:17;10.57;;;4.77;;
20069;SDS011;10195;50.868;4.382;2023-10-08T05:16:59;13.80;;;4.87;;
20069;SDS011;10195;50.868;4.382;2023-10-08T05:19:28;9.20;;;4.53;;
20069;SDS011;10195;50.868;4.382;2023-10-08T05:22:13;10.88;;;4.65;;
20069;SDS011;10195;50.868;4.382;2023-10-08T05:24:55;10.70;;;4.57;;
20069;SDS011;10195;50.868;4.382;2023-10-08T05:27:40;10.57;;;4.55;;
20069;SDS011;10195;50.868;4.382;2023-10-08T05:30:16;13.15;;;5.30;;
20069;SDS011;10195;50.868;4.382;2023-10-08T05:32:53;10.88;;;4.60;;
20069;SDS011;10195;50.868;4.382;2023-10-08T05:35:38;8.75;;;4.22;;
20069;SDS011;10195;50.868;4.382;2023-10-08T05:38:05;9.05;;;4.50;;
20069;SDS011;10195;50.868;4.382;2023-10-08T05:40:50;16.98;;;4.13;;
20069;SDS011;10195;50.868;4.382;2023-10-08T05:46:07;13.13;;;3.95;;
20069;SDS011;10195;50.868;4.382;2023-10-08T05:48:56;9.07;;;4.28;;
20069;SDS011;10195;50.868;4.382;2023-10-08T05:51:32;7.80;;;4.50;;
20069;SDS011;10195;50.868;4.382;2023-10-08T05:54:12;8.57;;;4.10;;
20069;SDS011;10195;50.868;4.382;2023-10-08T05:59:38;9.30;;;4.55;;
20069;SDS011;10195;50.868;4.382;2023-10-08T06:02:23;12.98;;;4.93;;
20069;SDS011;10195;50.868;4.382;2023-10-08T06:07:52;9.73;;;4.00;;
20069;SDS011;10195;50.868;4.382;2023-10-08T06:10:26;8.77;;;4.40;;
20069;SDS011;10195;50.868;4.382;2023-10-08T06:13:02;12.10;;;4.70;;
20069;SDS011;10195;50.868;4.382;2023-10-08T06:15:57;10.13;;;4.38;;
20069;SDS011;10195;50.868;4.382;2023-10-08T06:18:26;9.82;;;4.97;;
20069;SDS011;10195;50.868;4.382;2023-10-08T06:20:57;12.93;;;5.37;;
20069;SDS011;10195;50.868;4.382;2023-10-08T06:23:33;9.80;;;4.73;;
20069;SDS011;10195;50.868;4.382;2023-10-08T06:26:02;9.30;;;4.13;;
20069;SDS011;10195;50.868;4.382;2023-10-08T06:28:34;10.13;;;4.23;;
20069;SDS011;10195;50.868;4.382;2023-10-08T06:31:00;7.18;;;3.67;;
20069;SDS011;10195;50.868;4.382;2023-10-08T06:33:31;11.17;;;4.67;;
20069;SDS011;10195;50.868;4.382;2023-10-08T06:35:58;8.40;;;4.10;;
20069;SDS011;10195;50.868;4.382;2023-10-08T06:38:31;13.25;;;5.00;;
20069;SDS011;10195;50.868;4.382;2023-10-08T06:41:01;11.50;;;4.53;;
20069;SDS011;10195;50.868;4.382;2023-10-08T06:43:40;11.57;;;4.50;;
20069;SDS011;10195;50.868;4.382;2023-10-08T06:46:15;7.00;;;4.50;;
20069;SDS011;10195;50.868;4.382;2023-10-08T06:48:45;12.68;;;5.13;;
20069;SDS011;10195;50.868;4.382;2023-10-08T06:51:11;9.75;;;4.00;;
20069;SDS011;10195;50.868;4.382;2023-10-08T06:53:43;12.43;;;4.75;;
20069;SDS011;10195;50.868;4.382;2023-10-08T06:56:10;10.47;;;5.10;;
20069;SDS011;10195;50.868;4.382;2023-10-08T06:58:38;10.45;;;5.07;;
20069;SDS011;10195;50.868;4.382;2023-10-08T07:01:27;10.18;;;4.55;;
20069;SDS011;10195;50.868;4.382;2023-10-08T07:04:04;9.02;;;4.63;;
20069;SDS011;10195;50.868;4.382;2023-10-08T07:06:31;9.63;;;4.30;;
20069;SDS011;10195;50.868;4.382;2023-10-08T07:08:59;10.88;;;4.15;;
20069;SDS011;10195;50.868;4.382;2023-10-08T07:11:31;10.00;;;4.70;;
20069;SDS011;10195;50.868;4.382;2023-10-08T07:14:03;9.63;;;4.60;;
20069;SDS011;10195;50.868;4.382;2023-10-08T07:16:32;12.55;;;4.82;;
20069;SDS011;10195;50.868;4.382;2023-10-08T07:18:59;11.23;;;4.38;;
20069;SDS011;10195;50.868;4.382;2023-10-08T07:21:28;9.70;;;5.18;;
20069;SDS011;10195;50.868;4.382;2023-10-08T07:24:03;12.13;;;4.18;;
20069;SDS011;10195;50.868;4.382;2023-10-08T07:26:34;12.90;;;4.88;;
20069;SDS011;10195;50.868;4.382;2023-10-08T07:29:03;7.85;;;4.15;;
20069;SDS011;10195;50.868;4.382;2023-10-08T07:31:36;11.48;;;4.28;;
20069;SDS011;10195;50.868;4.382;2023-10-08T07:34:06;7.38;;;4.47;;
20069;SDS011;10195;50.868;4.382;2023-10-08T07:36:44;11.80;;;4.00;;
20069;SDS011;10195;50.868;4.382;2023-10-08T07:39:14;9.18;;;5.00;;
20069;SDS011;10195;50.868;4.382;2023-10-08T07:41:49;8.15;;;4.38;;
20069;SDS011;10195;50.868;4.382;2023-10-08T07:44:16;9.60;;;4.53;;
20069;SDS011;10195;50.868;4.382;2023-10-08T07:46:48;9.38;;;3.78;;
20069;SDS011;10195;50.868;4.382;2023-10-08T07:49:16;13.38;;;4.97;;
20069;SDS011;10195;50.868;4.382;2023-10-08T07:51:42;11.88;;;4.80;;
20069;SDS011;10195;50.868;4.382;2023-10-08T07:54:16;8.10;;;5.05;;
20069;SDS011;10195;50.868;4.382;2023-10-08T07:56:47;9.23;;;5.03;;
20069;SDS011;10195;50.868;4.382;2023-10-08T07:59:14;13.23;;;4.72;;
20069;SDS011;10195;50.868;4.382;2023-10-08T08:01:41;10.73;;;4.35;;
20069;SDS011;10195;50.868;4.382;2023-10-08T08:04:11;10.63;;;4.50;;
20069;SDS011;10195;50.868;4.382;2023-10-08T08:06:46;10.82;;;4.30;;
20069;SDS011;10195;50.868;4.382;2023-10-08T08:09:15;13.70;;;4.63;;
20069;SDS011;10195;50.868;4.382;2023-10-08T08:11:48;12.75;;;5.43;;
20069;SDS011;10195;50.868;4.382;2023-10-08T08:14:17;10.98;;;5.03;;
20069;SDS011;10195;50.868;4.382;2023-10-08T08:16:49;11.70;;;4.32;;
20069;SDS011;10195;50.868;4.382;2023-10-08T08:19:14;14.85;;;5.72;;
20069;SDS011;10195;50.868;4.382;2023-10-08T08:21:41;14.32;;;7.53;;
20069;SDS011;10195;50.868;4.382;2023-10-08T08:24:14;11.80;;;5.18;;
20069;SDS011;10195;50.868;4.382;2023-10-08T08:26:54;11.63;;;6.32;;
20069;SDS011;10195;50.868;4.382;2023-10-08T08:29:32;8.93;;;5.70;;
20069;SDS011;10195;50.868;4.382;2023-10-08T08:32:09;13.88;;;6.68;;
20069;SDS011;10195;50.868;4.382;2023-10-08T08:34:37;9.98;;;4.93;;
20069;SDS011;10195;50.868;4.382;2023-10-08T08:37:08;8.07;;;4.57;;
20069;SDS011;10195;50.868;4.382;2023-10-08T08:39:38;9.95;;;4.93;;
20069;SDS011;10195;50.868;4.382;2023-10-08T08:42:06;14.20;;;5.30;;
20069;SDS011;10195;50.868;4.382;2023-10-08T08:44:35;11.57;;;5.53;;
20069;SDS011;10195;50.868;4.382;2023-10-08T08:47:09;12.80;;;5.53;;
20069;SDS011;10195;50.868;4.382;2023-10-08T08:49:39;13.32;;;6.10;;
20069;SDS011;10195;50.868;4.382;2023-10-08T08:52:07;10.25;;;5.40;;
20069;SDS011;10195;50.868;4.382;2023-10-08T08:54:34;15.48;;;6.05;;
20069;SDS011;10195;50.868;4.382;2023-10-08T08:57:02;15.73;;;5.20;;
20069;SDS011;10195;50.868;4.382;2023-10-08T08:59:29;11.52;;;5.40;;
20069;SDS011;10195;50.868;4.382;2023-10-08T09:01:59;12.48;;;5.03;;
20069;SDS011;10195;50.868;4.382;2023-10-08T09:04:28;17.48;;;6.00;;
20069;SDS011;10195;50.868;4.382;2023-10-08T09:07:01;17.27;;;6.43;;
20069;SDS011;10195;50.868;4.382;2023-10-08T09:09:35;12.35;;;5.05;;
20069;SDS011;10195;50.868;4.382;2023-10-08T09:12:09;10.85;;;5.45;;
20069;SDS011;10195;50.868;4.382;2023-10-08T09:14:35;11.00;;;5.50;;
20069;SDS011;10195;50.868;4.382;2023-10-08T09:17:03;15.63;;;6.18;;
20069;SDS011;10195;50.868;4.382;2023-10-08T09:19:30;14.10;;;6.10;;
20069;SDS011;10195;50.868;4.382;2023-10-08T09:24:34;17.48;;;6.00;;
20069;SDS011;10195;50.868;4.382;2023-10-08T09:27:02;16.25;;;6.50;;
20069;SDS011;10195;50.868;4.382;2023-10-08T09:29:39;12.98;;;6.00;;
20069;SDS011;10195;50.868;4.382;2023-10-08T09:32:05;13.75;;;6.75;;
20069;SDS011;10195;50.868;4.382;2023-10-08T09:34:35;12.85;;;6.57;;
20069;SDS011;10195;50.868;4.382;2023-10-08T09:37:01;14.30;;;5.63;;
20069;SDS011;10195;50.868;4.382;2023-10-08T09:39:28;12.25;;;6.13;;
20069;SDS011;10195;50.868;4.382;2023-10-08T09:41:59;11.13;;;5.88;;
20069;SDS011;10195;50.868;4.382;2023-10-08T09:44:28;11.82;;;6.35;;
20069;SDS011;10195;50.868;4.382;2023-10-08T09:47:08;14.95;;;6.63;;
20069;SDS011;10195;50.868;4.382;2023-10-08T09:49:45;21.05;;;8.40;;
20069;SDS011;10195;50.868;4.382;2023-10-08T09:52:23;14.23;;;6.40;;
20069;SDS011;10195;50.868;4.382;2023-10-08T09:55:00;18.35;;;7.00;;
20069;SDS011;10195;50.868;4.382;2023-10-08T09:57:28;15.00;;;6.93;;
20069;SDS011;10195;50.868;4.382;2023-10-08T09:59:54;12.63;;;6.43;;
20069;SDS011;10195;50.868;4.382;2023-10-08T10:02:22;14.70;;;6.43;;
20069;SDS011;10195;50.868;4.382;2023-10-08T10:04:52;22.05;;;8.82;;
20069;SDS011;10195;50.868;4.382;2023-10-08T10:07:19;14.23;;;6.72;;
20069;SDS011;10195;50.868;4.382;2023-10-08T10:09:49;14.27;;;5.80;;
20069;SDS011;10195;50.868;4.382;2023-10-08T10:12:17;13.95;;;6.20;;
20069;SDS011;10195;50.868;4.382;2023-10-08T10:14:51;14.38;;;6.28;;
20069;SDS011;10195;50.868;4.382;2023-10-08T10:17:21;14.57;;;6.97;;
20069;SDS011;10195;50.868;4.382;2023-10-08T10:19:53;13.65;;;6.10;;
20069;SDS011;10195;50.868;4.382;2023-10-08T10:22:30;12.30;;;6.30;;
20069;SDS011;10195;50.868;4.382;2023-10-08T10:25:00;10.55;;;5.90;;
20069;SDS011;10195;50.868;4.382;2023-10-08T10:27:36;15.98;;;7.10;;
20069;SDS011;10195;50.868;4.382;2023-10-08T10:30:03;18.02;;;7.07;;
20069;SDS011;10195;50.868;4.382;2023-10-08T10:32:44;15.25;;;6.28;;
20069;SDS011;10195;50.868;4.382;2023-10-08T10:35:14;12.43;;;6.20;;
20069;SDS011;10195;50.868;4.382;2023-10-08T10:37:42;15.35;;;6.47;;
20069;SDS011;10195;50.868;4.382;2023-10-08T10:40:21;15.20;;;6.32;;
20069;SDS011;10195;50.868;4.382;2023-10-08T10:43:06;13.90;;;6.20;;
20069;SDS011;10195;50.868;4.382;2023-10-08T10:45:32;17.77;;;6.85;;
20069;SDS011;10195;50.868;4.382;2023-10-08T10:48:04;12.88;;;6.43;;
20069;SDS011;10195;50.868;4.382;2023-10-08T10:50:46;23.75;;;7.05;;
20069;SDS011;10195;50.868;4.382;2023-10-08T10:53:40;16.63;;;7.40;;
20069;SDS011;10195;50.868;4.382;2023-10-08T10:56:24;13.68;;;6.75;;
20069;SDS011;10195;50.868;4.382;2023-10-08T10:58:59;17.52;;;7.57;;
20069;SDS011;10195;50.868;4.382;2023-10-08T11:01:30;13.15;;;6.38;;
20069;SDS011;10195;50.868;4.382;2023-10-08T11:04:09;13.60;;;6.50;;
20069;SDS011;10195;50.868;4.382;2023-10-08T11:06:40;14.02;;;6.65;;
20069;SDS011;10195;50.868;4.382;2023-10-08T11:09:09;18.98;;;7.82;;
20069;SDS011;10195;50.868;4.382;2023-10-08T11:11:40;17.23;;;6.72;;
20069;SDS011;10195;50.868;4.382;2023-10-08T11:14:10;13.07;;;6.40;;
20069;SDS011;10195;50.868;4.382;2023-10-08T11:16:44;14.70;;;6.18;;
20069;SDS011;10195;50.868;4.382;2023-10-08T11:19:10;20.65;;;6.88;;
20069;SDS011;10195;50.868;4.382;2023-10-08T11:21:49;16.20;;;6.93;;
20069;SDS011;10195;50.868;4.382;2023-10-08T11:24:29;14.82;;;6.75;;
20069;SDS011;10195;50.868;4.382;2023-10-08T11:26:59;13.93;;;6.75;;
20069;SDS011;10195;50.868;4.382;2023-10-08T11:29:40;17.45;;;6.68;;
20069;SDS011;10195;50.868;4.382;2023-10-08T11:32:08;18.85;;;6.03;;
20069;SDS011;10195;50.868;4.382;2023-10-08T11:34:37;15.00;;;6.55;;
20069;SDS011;10195;50.868;4.382;2023-10-08T11:37:04;29.58;;;6.57;;
20069;SDS011;10195;50.868;4.382;2023-10-08T11:39:51;13.27;;;6.03;;
20069;SDS011;10195;50.868;4.382;2023-10-08T11:42:18;16.17;;;6.53;;
20069;SDS011;10195;50.868;4.382;2023-10-08T11:44:59;11.75;;;6.00;;
20069;SDS011;10195;50.868;4.382;2023-10-08T11:47:25;13.93;;;5.68;;
20069;SDS011;10195;50.868;4.382;2023-10-08T11:49:56;16.60;;;6.07;;
20069;SDS011;10195;50.868;4.382;2023-10-08T11:52:35;17.83;;;6.65;;
20069;SDS011;10195;50.868;4.382;2023-10-08T11:55:06;13.68;;;6.50;;
20069;SDS011;10195;50.868;4.382;2023-10-08T11:57:39;14.95;;;6.63;;
20069;SDS011;10195;50.868;4.382;2023-10-08T12:00:11;14.25;;;6.50;;
20069;SDS011;10195;50.868;4.382;2023-10-08T12:02:47;22.17;;;6.97;;
20069;SDS011;10195;50.868;4.382;2023-10-08T12:05:13;15.90;;;6.40;;
20069;SDS011;10195;50.868;4.382;2023-10-08T12:07:49;14.98;;;6.65;;
20069;SDS011;10195;50.868;4.382;2023-10-08T12:10:38;17.58;;;6.70;;
20069;SDS011;10195;50.868;4.382;2023-10-08T12:13:03;13.13;;;6.07;;
20069;SDS011;10195;50.868;4.382;2023-10-08T12:15:30;14.70;;;6.90;;
20069;SDS011;10195;50.868;4.382;2023-10-08T12:18:03;17.85;;;7.57;;
20069;SDS011;10195;50.868;4.382;2023-10-08T12:20:49;17.80;;;6.60;;
20069;SDS011;10195;50.868;4.382;2023-10-08T12:23:15;16.98;;;7.03;;
20069;SDS011;10195;50.868;4.382;2023-10-08T12:25:56;11.63;;;6.40;;
20069;SDS011;10195;50.868;4.382;2023-10-08T12:28:22;12.20;;;6.68;;
20069;SDS011;10195;50.868;4.382;2023-10-08T12:30:49;16.42;;;6.60;;
20069;SDS011;10195;50.868;4.382;2023-10-08T12:33:20;14.18;;;6.30;;
20069;SDS011;10195;50.868;4.382;2023-10-08T12:35:51;13.38;;;6.30;;
20069;SDS011;10195;50.868;4.382;2023-10-08T12:38:30;23.27;;;6.38;;
20069;SDS011;10195;50.868;4.382;2023-10-08T12:40:56;14.02;;;5.57;;
20069;SDS011;10195;50.868;4.382;2023-10-08T12:43:24;13.25;;;6.32;;
20069;SDS011;10195;50.868;4.382;2023-10-08T12:45:53;15.88;;;5.55;;
20069;SDS011;10195;50.868;4.382;2023-10-08T12:48:25;17.02;;;6.32;;
20069;SDS011;10195;50.868;4.382;2023-10-08T12:50:51;15.50;;;6.50;;
20069;SDS011;10195;50.868;4.382;2023-10-08T12:53:30;13.45;;;6.53;;
20069;SDS011;10195;50.868;4.382;2023-10-08T12:55:59;17.08;;;6.40;;
20069;SDS011;10195;50.868;4.382;2023-10-08T12:58:32;13.15;;;6.60;;
20069;SDS011;10195;50.868;4.382;2023-10-08T13:01:09;15.55;;;6.53;;
20069;SDS011;10195;50.868;4.382;2023-10-08T13:03:36;14.82;;;6.18;;
20069;SDS011;10195;50.868;4.382;2023-10-08T13:06:12;15.85;;;7.00;;
20069;SDS011;10195;50.868;4.382;2023-10-08T13:08:51;15.48;;;6.18;;
20069;SDS011;10195;50.868;4.382;2023-10-08T13:11:18;13.95;;;6.15;;
20069;SDS011;10195;50.868;4.382;2023-10-08T13:13:48;13.02;;;5.68;;
20069;SDS011;10195;50.868;4.382;2023-10-08T13:16:14;12.05;;;6.90;;
20069;SDS011;10195;50.868;4.382;2023-10-08T13:18:40;16.58;;;6.82;;
20069;SDS011;10195;50.868;4.382;2023-10-08T13:21:08;13.75;;;7.35;;
20069;SDS011;10195;50.868;4.382;2023-10-08T13:23:34;14.85;;;6.13;;
20069;SDS011;10195;50.868;4.382;2023-10-08T13:26:01;18.83;;;6.72;;
20069;SDS011;10195;50.868;4.382;2023-10-08T13:28:29;15.95;;;6.32;;
20069;SDS011;10195;50.868;4.382;2023-10-08T13:30:58;13.52;;;6.07;;
20069;SDS011;10195;50.868;4.382;2023-10-08T13:33:38;16.00;;;6.68;;
20069;SDS011;10195;50.868;4.382;2023-10-08T13:36:05;10.88;;;6.03;;
20069;SDS011;10195;50.868;4.382;2023-10-08T13:38:35;16.95;;;6.78;;
20069;SDS011;10195;50.868;4.382;2023-10-08T13:41:02;10.32;;;5.78;;
20069;SDS011;10195;50.868;4.382;2023-10-08T13:43:38;13.27;;;5.30;;
20069;SDS011;10195;50.868;4.382;2023-10-08T13:46:05;13.82;;;6.40;;
20069;SDS011;10195;50.868;4.382;2023-10-08T13:48:34;14.93;;;6.13;;
20069;SDS011;10195;50.868;4.382;2023-10-08T13:51:04;11.70;;;6.35;;
20069;SDS011;10195;50.868;4.382;2023-10-08T13:53:36;16.77;;;6.13;;
20069;SDS011;10195;50.868;4.382;2023-10-08T13:56:02;15.93;;;6.15;;
20069;SDS011;10195;50.868;4.382;2023-10-08T13:58:32;12.80;;;6.82;;
20069;SDS011;10195;50.868;4.382;2023-10-08T14:01:05;12.40;;;6.68;;
20069;SDS011;10195;50.868;4.382;2023-10-08T14:03:45;13.35;;;5.85;;
20069;SDS011;10195;50.868;4.382;2023-10-08T14:06:12;15.45;;;6.18;;
20069;SDS011;10195;50.868;4.382;2023-10-08T14:08:39;13.20;;;6.10;;
20069;SDS011;10195;50.868;4.382;2023-10-08T14:11:04;13.90;;;6.20;;
20069;SDS011;10195;50.868;4.382;2023-10-08T14:13:30;13.32;;;6.10;;
20069;SDS011;10195;50.868;4.382;2023-10-08T14:16:01;10.75;;;6.28;;
20069;SDS011;10195;50.868;4.382;2023-10-08T14:18:34;11.35;;;6.25;;
20069;SDS011;10195;50.868;4.382;2023-10-08T14:21:06;15.07;;;6.25;;
20069;SDS011;10195;50.868;4.382;2023-10-08T14:23:38;15.13;;;6.40;;
20069;SDS011;10195;50.868;4.382;2023-10-08T14:26:07;14.25;;;7.10;;
20069;SDS011;10195;50.868;4.382;2023-10-08T14:28:37;16.02;;;6.18;;
20069;SDS011;10195;50.868;4.382;2023-10-08T14:31:08;13.27;;;6.75;;
20069;SDS011;10195;50.868;4.382;2023-10-08T14:33:34;11.35;;;5.95;;
20069;SDS011;10195;50.868;4.382;2023-10-08T14:36:08;16.10;;;6.88;;
20069;SDS011;10195;50.868;4.382;2023-10-08T14:38:53;15.38;;;6.82;;
20069;SDS011;10195;50.868;4.382;2023-10-08T14:41:37;13.20;;;6.35;;
20069;SDS011;10195;50.868;4.382;2023-10-08T14:44:21;14.88;;;6.25;;
20069;SDS011;10195;50.868;4.382;2023-10-08T14:46:48;13.43;;;5.93;;
20069;SDS011;10195;50.868;4.382;2023-10-08T14:49:17;16.65;;;5.97;;
20069;SDS011;10195;50.868;4.382;2023-10-08T14:51:42;13.40;;;6.70;;
20069;SDS011;10195;50.868;4.382;2023-10-08T14:54:08;13.43;;;6.40;;
20069;SDS011;10195;50.868;4.382;2023-10-08T14:56:37;10.65;;;5.63;;
20069;SDS011;10195;50.868;4.382;2023-10-08T14:59:04;15.32;;;7.05;;
20069;SDS011;10195;50.868;4.382;2023-10-08T15:01:30;16.08;;;6.38;;
20069;SDS011;10195;50.868;4.382;2023-10-08T15:03:58;18.35;;;6.93;;
20069;SDS011;10195;50.868;4.382;2023-10-08T15:06:28;15.48;;;6.00;;
20069;SDS011;10195;50.868;4.382;2023-10-08T15:08:55;13.13;;;6.18;;
20069;SDS011;10195;50.868;4.382;2023-10-08T15:11:22;12.73;;;5.75;;
20069;SDS011;10195;50.868;4.382;2023-10-08T15:13:48;12.23;;;5.45;;
20069;SDS011;10195;50.868;4.382;2023-10-08T15:16:18;10.45;;;5.20;;